createdAt,value
2023-03-03T00:02:12.894Z,-3.38
2023-03-03T00:04:41.222Z,-3.40
2023-03-03T00:07:09.034Z,-3.39
2023-03-03T00:09:36.969Z,-3.42
2023-03-03T00:12:19.133Z,-3.46
2023-03-03T00:14:47.121Z,-3.52
2023-03-03T00:17:23.205Z,-3.41
2023-03-03T00:19:51.956Z,-3.49
2023-03-03T00:22:38.181Z,-3.51
2023-03-03T00:25:33.855Z,-3.52
2023-03-03T00:28:28.792Z,-3.44
2023-03-03T00:31:01.873Z,-3.34
2023-03-03T00:33:41.516Z,-3.41
2023-03-03T00:36:15.340Z,-3.42
2023-03-03T00:38:43.259Z,-3.45
2023-03-03T00:41:31.711Z,-3.42
2023-03-03T00:43:59.673Z,-3.43
2023-03-03T00:46:27.997Z,-3.41
2023-03-03T00:48:55.601Z,-3.48
2023-03-03T00:51:23.494Z,-3.43
2023-03-03T00:53:51.632Z,-3.40
2023-03-03T00:56:19.631Z,-3.46
2023-03-03T00:58:50.411Z,-3.52
2023-03-03T01:01:20.828Z,-3.49
2023-03-03T01:03:52.553Z,-3.36
2023-03-03T01:06:20.575Z,-3.36
2023-03-03T01:08:48.316Z,-3.26
2023-03-03T01:11:28.670Z,-3.27
2023-03-03T01:13:57.481Z,-3.28
2023-03-03T01:16:25.492Z,-3.34
2023-03-03T01:18:53.251Z,-3.36
2023-03-03T01:21:22.358Z,-3.42
2023-03-03T01:23:50.068Z,-3.43
2023-03-03T01:26:18.210Z,-3.46
2023-03-03T01:28:46.043Z,-3.49
2023-03-03T01:31:14.083Z,-3.34
2023-03-03T01:33:41.817Z,-3.46
2023-03-03T01:36:09.947Z,-3.42
2023-03-03T01:38:39.108Z,-3.57
2023-03-03T01:41:07.084Z,-3.42
2023-03-03T01:43:34.815Z,-3.41
2023-03-03T01:46:02.642Z,-3.41
2023-03-03T01:48:40.556Z,-3.48
2023-03-03T01:51:28.425Z,-3.39
2023-03-03T01:54:01.573Z,-3.60
2023-03-03T01:56:30.409Z,-3.61
2023-03-03T01:59:21.438Z,-3.71
2023-03-03T02:01:50.122Z,-3.77
2023-03-03T02:04:19.192Z,-3.76
2023-03-03T02:06:54.802Z,-3.71
2023-03-03T02:09:48.152Z,-3.50
2023-03-03T02:12:20.425Z,-3.31
2023-03-03T02:14:48.194Z,-3.15
2023-03-03T02:17:16.515Z,-3.02
2023-03-03T02:20:06.007Z,-2.92
2023-03-03T02:23:13.445Z,-2.80
2023-03-03T02:25:49.808Z,-2.69
2023-03-03T02:28:17.914Z,-2.58
2023-03-03T02:30:46.733Z,-2.51
2023-03-03T02:33:14.950Z,-2.42
2023-03-03T02:35:43.230Z,-2.37
2023-03-03T02:38:20.691Z,-2.27
2023-03-03T02:41:01.716Z,-2.23
2023-03-03T02:43:41.868Z,-2.18
2023-03-03T02:46:11.740Z,-2.14
2023-03-03T02:48:39.775Z,-2.14
2023-03-03T02:51:07.830Z,-2.03
2023-03-03T02:53:35.745Z,-2.03
2023-03-03T02:56:04.563Z,-1.99
2023-03-03T02:58:32.626Z,-1.95
2023-03-03T03:01:00.739Z,-1.92
2023-03-03T03:03:29.078Z,-1.98
2023-03-03T03:05:57.643Z,-1.96
2023-03-03T03:08:26.626Z,-2.00
2023-03-03T03:10:54.963Z,-1.96
2023-03-03T03:13:24.548Z,-1.92
2023-03-03T03:15:52.768Z,-1.85
2023-03-03T03:18:21.082Z,-1.89
2023-03-03T03:20:50.417Z,-1.95
2023-03-03T03:23:18.595Z,-1.91
2023-03-03T03:25:46.852Z,-1.82
2023-03-03T03:28:21.316Z,-1.76
2023-03-03T03:30:52.325Z,-1.71
2023-03-03T03:33:22.449Z,-1.55
2023-03-03T03:35:51.706Z,-1.67
2023-03-03T03:38:20.050Z,-1.76
2023-03-03T03:40:49.157Z,-1.73
2023-03-03T03:43:17.257Z,-1.81
2023-03-03T03:45:46.102Z,-1.85
2023-03-03T03:48:17.179Z,-1.98
2023-03-03T03:50:48.846Z,-1.98
2023-03-03T03:53:18.301Z,-2.03
2023-03-03T03:55:47.588Z,-2.28
2023-03-03T03:58:17.754Z,-2.40
2023-03-03T04:00:50.634Z,-2.50
2023-03-03T04:03:20.289Z,-2.64
2023-03-03T04:05:52.574Z,-2.74
2023-03-03T04:08:21.557Z,-2.82
2023-03-03T04:10:49.689Z,-2.68
2023-03-03T04:13:17.831Z,-2.74
2023-03-03T04:15:46.363Z,-2.76
2023-03-03T04:18:14.728Z,-2.82
2023-03-03T04:20:42.764Z,-2.78
2023-03-03T04:23:12.033Z,-2.76
2023-03-03T04:25:40.261Z,-2.78
2023-03-03T04:28:18.346Z,-2.87
2023-03-03T04:30:46.830Z,-2.94
2023-03-03T04:33:17.579Z,-2.94
2023-03-03T04:35:47.112Z,-2.96
2023-03-03T04:38:15.637Z,-2.96
2023-03-03T04:40:44.152Z,-2.88
2023-03-03T04:43:14.589Z,-2.98
2023-03-03T04:45:42.814Z,-3.02
2023-03-03T04:48:11.338Z,-3.11
2023-03-03T04:50:39.044Z,-3.07
2023-03-03T04:53:06.995Z,-2.89
2023-03-03T04:55:37.959Z,-2.99
2023-03-03T04:58:07.147Z,-2.94
2023-03-03T05:00:34.942Z,-3.06
2023-03-03T05:03:04.309Z,-3.12
2023-03-03T05:05:32.346Z,-3.09
2023-03-03T05:08:00.338Z,-3.17
2023-03-03T05:10:28.201Z,-3.19
2023-03-03T05:12:56.260Z,-3.09
2023-03-03T05:15:24.285Z,-3.07
2023-03-03T05:17:53.501Z,-3.07
2023-03-03T05:20:21.133Z,-2.91
2023-03-03T05:22:49.096Z,-2.96
2023-03-03T05:25:16.914Z,-2.90
2023-03-03T05:27:45.420Z,-2.84
2023-03-03T05:30:13.448Z,-2.83
2023-03-03T05:32:41.305Z,-2.65
2023-03-03T05:35:09.315Z,-2.58
2023-03-03T05:37:37.433Z,-2.47
2023-03-03T05:40:05.600Z,-2.34
2023-03-03T05:42:33.552Z,-2.17
2023-03-03T05:45:01.240Z,-1.90
2023-03-03T05:47:30.082Z,-1.58
2023-03-03T05:49:57.754Z,-1.15
2023-03-03T05:52:25.757Z,-1.03
2023-03-03T05:54:53.354Z,-0.74
2023-03-03T05:57:21.290Z,-0.68
2023-03-03T05:59:48.964Z,-0.58
2023-03-03T06:02:16.915Z,-0.59
2023-03-03T06:04:44.589Z,-0.62
2023-03-03T06:07:12.642Z,-0.51
2023-03-03T06:09:40.442Z,-0.31
2023-03-03T06:12:08.388Z,0.02
2023-03-03T06:14:36.075Z,0.07
2023-03-03T06:17:04.131Z,0.13
2023-03-03T06:19:32.038Z,0.30
2023-03-03T06:22:00.890Z,0.13
2023-03-03T06:24:30.468Z,0.25
2023-03-03T06:26:59.500Z,0.52
2023-03-03T06:29:28.071Z,0.63
2023-03-03T06:31:56.211Z,0.73
2023-03-03T06:34:23.893Z,1.12
2023-03-03T06:36:52.321Z,1.88
2023-03-03T06:39:20.119Z,2.59
2023-03-03T06:41:47.763Z,3.56
2023-03-03T06:44:15.775Z,4.48
2023-03-03T06:46:43.533Z,5.11
2023-03-03T06:49:11.432Z,5.00
2023-03-03T06:51:43.990Z,4.62
2023-03-03T06:54:30.273Z,3.99
2023-03-03T06:57:08.998Z,3.36
2023-03-03T06:59:37.013Z,2.94
2023-03-03T07:02:16.090Z,2.73
2023-03-03T07:04:45.536Z,2.33
2023-03-03T07:07:24.905Z,2.15
2023-03-03T07:09:55.969Z,2.23
2023-03-03T07:12:30.206Z,2.13
2023-03-03T07:15:24.524Z,2.39
2023-03-03T07:17:59.680Z,2.23
2023-03-03T07:20:38.752Z,2.28
2023-03-03T07:23:26.770Z,2.63
2023-03-03T07:25:55.207Z,2.56
2023-03-03T07:28:29.638Z,2.19
2023-03-03T07:30:58.880Z,2.06
2023-03-03T07:33:31.961Z,2.08
2023-03-03T07:36:02.038Z,1.63
2023-03-03T07:38:40.350Z,1.45
2023-03-03T07:41:17.721Z,1.53
2023-03-03T07:43:54.819Z,1.48
2023-03-03T07:46:25.657Z,1.45
2023-03-03T07:48:54.690Z,1.63
2023-03-03T07:51:29.877Z,1.86
2023-03-03T07:54:15.979Z,2.14
2023-03-03T07:56:44.039Z,2.26
2023-03-03T07:59:30.306Z,2.28
2023-03-03T08:01:58.848Z,2.26
2023-03-03T08:04:50.997Z,2.03
2023-03-03T08:07:21.773Z,1.94
2023-03-03T08:10:29.580Z,2.11
2023-03-03T08:13:01.438Z,2.06
2023-03-03T08:15:36.785Z,2.38
2023-03-03T08:18:35.694Z,2.42
2023-03-03T08:21:14.676Z,2.88
2023-03-03T08:23:42.865Z,2.73
2023-03-03T08:26:12.825Z,2.85
2023-03-03T08:28:41.059Z,2.69
2023-03-03T08:31:18.345Z,2.76
2023-03-03T08:33:50.460Z,2.73
2023-03-03T08:36:18.548Z,2.64
2023-03-03T08:38:46.623Z,2.80
2023-03-03T08:41:14.391Z,2.91
2023-03-03T08:43:43.302Z,2.95
2023-03-03T08:46:11.920Z,2.50
2023-03-03T08:48:39.997Z,2.32
2023-03-03T08:51:07.747Z,2.19
2023-03-03T08:53:36.691Z,2.26
2023-03-03T08:56:05.546Z,2.16
2023-03-03T08:58:35.885Z,2.11
2023-03-03T09:01:04.908Z,2.14
2023-03-03T09:03:33.055Z,2.31
2023-03-03T09:06:00.716Z,2.10
2023-03-03T09:08:28.848Z,2.21
2023-03-03T09:10:56.783Z,2.12
2023-03-03T09:13:24.758Z,2.06
2023-03-03T09:15:52.893Z,2.33
2023-03-03T09:18:27.312Z,2.45
2023-03-03T09:20:57.612Z,2.27
2023-03-03T09:23:43.178Z,2.10
2023-03-03T09:26:13.902Z,2.54
2023-03-03T09:28:42.342Z,2.64
2023-03-03T09:31:36.948Z,2.55
2023-03-03T09:34:20.927Z,2.71
2023-03-03T09:36:52.395Z,2.83
2023-03-03T09:39:30.140Z,3.13
2023-03-03T09:42:00.655Z,3.11
2023-03-03T09:44:34.410Z,3.08
2023-03-03T09:47:14.111Z,3.25
2023-03-03T09:50:18.851Z,3.35
2023-03-03T09:53:05.570Z,2.99
2023-03-03T09:55:45.222Z,3.33
2023-03-03T09:58:31.769Z,3.25
2023-03-03T10:01:31.908Z,3.15
2023-03-03T10:04:31.148Z,3.36
2023-03-03T10:07:01.887Z,3.51
2023-03-03T10:09:58.396Z,3.24
2023-03-03T10:12:50.692Z,3.42
2023-03-03T10:15:48.945Z,3.15
2023-03-03T10:18:32.889Z,3.36
2023-03-03T10:21:06.550Z,3.28
2023-03-03T10:23:43.428Z,3.18
2023-03-03T10:26:45.170Z,3.03
2023-03-03T10:29:24.243Z,2.90
2023-03-03T10:32:19.044Z,3.13
2023-03-03T10:35:05.621Z,2.57
2023-03-03T10:37:57.866Z,2.52
2023-03-03T10:40:33.175Z,2.44
2023-03-03T10:43:22.459Z,2.32
2023-03-03T10:46:15.809Z,2.28
2023-03-03T10:49:14.787Z,2.26
2023-03-03T10:51:42.995Z,2.33
2023-03-03T10:54:32.566Z,2.38
2023-03-03T10:57:23.311Z,2.20
2023-03-03T11:00:26.048Z,2.50
2023-03-03T11:03:12.420Z,2.36
2023-03-03T11:05:54.964Z,2.30
2023-03-03T11:08:35.448Z,2.01
2023-03-03T11:11:11.070Z,1.55
2023-03-03T11:13:39.022Z,1.49
2023-03-03T11:16:30.818Z,1.64
2023-03-03T11:19:26.108Z,1.58
2023-03-03T11:22:14.947Z,1.73
2023-03-03T11:25:03.680Z,1.61
2023-03-03T11:27:43.480Z,1.51
2023-03-03T11:30:39.905Z,1.51
2023-03-03T11:33:14.734Z,1.25
2023-03-03T11:35:53.543Z,1.39
2023-03-03T11:38:33.463Z,1.12
2023-03-03T11:41:22.882Z,1.09
2023-03-03T11:44:27.497Z,1.12
2023-03-03T11:47:10.880Z,1.10
2023-03-03T11:49:46.500Z,1.08
2023-03-03T11:52:43.080Z,1.33
2023-03-03T11:55:16.227Z,1.23
2023-03-03T11:58:02.988Z,1.33
2023-03-03T12:00:55.386Z,1.29
2023-03-03T12:03:57.250Z,1.33
2023-03-03T12:06:34.348Z,1.29
2023-03-03T12:09:14.029Z,1.25
2023-03-03T12:11:41.640Z,1.26
2023-03-03T12:14:44.775Z,1.13
2023-03-03T12:17:50.842Z,1.05
2023-03-03T12:20:48.445Z,1.02
2023-03-03T12:23:46.449Z,1.05
2023-03-03T12:26:38.518Z,1.12
2023-03-03T12:29:22.634Z,1.13
2023-03-03T12:32:15.209Z,1.10
2023-03-03T12:34:58.763Z,1.22
2023-03-03T12:37:53.553Z,0.96
2023-03-03T12:40:40.923Z,0.88
2023-03-03T12:43:24.361Z,0.82
2023-03-03T12:46:11.423Z,0.85
2023-03-03T12:48:44.631Z,1.21
2023-03-03T12:51:24.833Z,1.04
2023-03-03T12:54:07.567Z,1.10
2023-03-03T12:56:48.722Z,1.11
2023-03-03T12:59:46.132Z,0.93
2023-03-03T13:02:47.224Z,1.08
2023-03-03T13:05:45.719Z,1.03
2023-03-03T13:08:51.693Z,1.02
2023-03-03T13:11:57.498Z,1.28
2023-03-03T13:14:28.262Z,1.19
2023-03-03T13:17:08.107Z,1.21
2023-03-03T13:20:01.120Z,1.24
2023-03-03T13:22:39.693Z,1.03
2023-03-03T13:25:20.692Z,1.17
2023-03-03T13:27:54.803Z,0.82
2023-03-03T13:30:23.853Z,0.92
2023-03-03T13:32:57.888Z,0.86
2023-03-03T13:35:44.493Z,0.77
2023-03-03T13:38:42.501Z,1.10
2023-03-03T13:41:35.364Z,0.84
2023-03-03T13:44:11.218Z,1.10
2023-03-03T13:47:02.730Z,1.03
2023-03-03T13:49:33.689Z,0.95
2023-03-03T13:52:14.026Z,1.14
2023-03-03T13:55:10.529Z,1.24
2023-03-03T13:57:44.569Z,1.20
2023-03-03T14:00:54.271Z,1.06
2023-03-03T14:04:13.454Z,1.07
2023-03-03T14:06:50.283Z,1.12
2023-03-03T14:09:26.835Z,1.00
2023-03-03T14:12:00.665Z,0.98
2023-03-03T14:14:28.453Z,1.11
2023-03-03T14:17:25.866Z,1.19
2023-03-03T14:20:06.687Z,1.16
2023-03-03T14:23:01.248Z,1.09
2023-03-03T14:25:51.586Z,1.15
2023-03-03T14:28:23.513Z,1.08
2023-03-03T14:30:55.597Z,1.12
2023-03-03T14:33:29.664Z,1.01
2023-03-03T14:35:57.491Z,1.05
2023-03-03T14:38:38.029Z,0.98
2023-03-03T14:41:19.215Z,1.07
2023-03-03T14:44:23.249Z,0.90
2023-03-03T14:47:09.359Z,0.85
2023-03-03T14:49:39.877Z,1.04
2023-03-03T14:52:16.349Z,1.22
2023-03-03T14:54:48.067Z,0.80
2023-03-03T14:57:46.068Z,0.73
2023-03-03T15:00:14.878Z,0.56
2023-03-03T15:03:02.753Z,0.64
2023-03-03T15:05:34.773Z,0.62
2023-03-03T15:08:05.343Z,0.74
2023-03-03T15:10:46.182Z,0.67
2023-03-03T15:13:31.412Z,0.68
2023-03-03T15:16:03.389Z,0.63
2023-03-03T15:18:33.348Z,0.68
2023-03-03T15:21:26.143Z,0.86
2023-03-03T15:24:13.259Z,1.06
2023-03-03T15:27:23.054Z,0.77
2023-03-03T15:30:30.672Z,0.91
2023-03-03T15:33:16.818Z,0.88
2023-03-03T15:35:54.618Z,0.84
2023-03-03T15:38:50.673Z,0.78
2023-03-03T15:41:37.767Z,0.86
2023-03-03T15:44:33.303Z,0.81
2023-03-03T15:47:21.254Z,0.78
2023-03-03T15:50:26.020Z,0.90
2023-03-03T15:53:13.002Z,1.02
2023-03-03T15:56:06.339Z,0.93
2023-03-03T15:59:07.999Z,0.96
2023-03-03T16:02:03.346Z,0.84
2023-03-03T16:04:35.052Z,0.53
2023-03-03T16:07:41.556Z,0.54
2023-03-03T16:10:34.910Z,0.54
2023-03-03T16:13:23.734Z,0.57
2023-03-03T16:16:29.054Z,0.65
2023-03-03T16:19:27.076Z,0.68
2023-03-03T16:22:05.903Z,0.53
2023-03-03T16:25:25.397Z,0.38
2023-03-03T16:28:16.858Z,0.38
2023-03-03T16:31:01.729Z,0.32
2023-03-03T16:33:44.033Z,0.31
2023-03-03T16:36:36.948Z,0.34
2023-03-03T16:39:26.593Z,0.33
2023-03-03T16:41:57.390Z,0.44
2023-03-03T16:44:43.541Z,0.47
2023-03-03T16:47:39.910Z,0.48
2023-03-03T16:50:26.374Z,0.52
2023-03-03T16:53:03.809Z,0.52
2023-03-03T16:56:03.571Z,0.47
2023-03-03T16:58:55.223Z,0.54
2023-03-03T17:01:40.774Z,0.60
2023-03-03T17:04:30.917Z,0.44
2023-03-03T17:07:18.972Z,0.53
2023-03-03T17:10:23.219Z,0.45
2023-03-03T17:13:02.907Z,0.46
2023-03-03T17:15:39.766Z,0.49
2023-03-03T17:18:25.533Z,0.50
2023-03-03T17:21:00.505Z,0.60
2023-03-03T17:23:54.910Z,0.65
2023-03-03T17:26:43.861Z,0.60
2023-03-03T17:29:32.963Z,0.56
2023-03-03T17:32:00.907Z,0.57
2023-03-03T17:34:33.810Z,0.47
2023-03-03T17:37:31.329Z,0.67
2023-03-03T17:40:25.055Z,0.65
2023-03-03T17:43:22.402Z,0.36
2023-03-03T17:45:54.457Z,0.39
2023-03-03T17:48:42.097Z,0.38
2023-03-03T17:51:33.234Z,0.39
2023-03-03T17:54:22.177Z,0.41
2023-03-03T17:57:08.887Z,0.53
2023-03-03T18:00:06.816Z,0.53
2023-03-03T18:03:07.712Z,0.52
2023-03-03T18:05:46.895Z,0.57
2023-03-03T18:08:27.081Z,0.45
2023-03-03T18:11:11.845Z,0.44
2023-03-03T18:13:55.686Z,0.41
2023-03-03T18:16:41.693Z,0.47
2023-03-03T18:19:28.088Z,0.50
2023-03-03T18:22:14.030Z,0.45
2023-03-03T18:24:50.628Z,0.60
2023-03-03T18:27:48.797Z,0.49
2023-03-03T18:30:25.070Z,0.45
2023-03-03T18:33:01.007Z,0.24
2023-03-03T18:35:38.384Z,0.26
2023-03-03T18:38:19.864Z,0.38
2023-03-03T18:41:21.718Z,0.31
2023-03-03T18:44:23.690Z,0.62
2023-03-03T18:46:53.277Z,0.42
2023-03-03T18:49:47.379Z,0.42
2023-03-03T18:52:28.845Z,0.53
2023-03-03T18:55:05.264Z,0.37
2023-03-03T18:57:33.031Z,0.35
2023-03-03T19:00:37.601Z,0.41
2023-03-03T19:03:25.649Z,0.28
2023-03-03T19:05:57.710Z,0.26
2023-03-03T19:08:30.093Z,0.36
2023-03-03T19:11:02.358Z,0.31
2023-03-03T19:13:37.786Z,0.19
2023-03-03T19:16:25.402Z,0.28
2023-03-03T19:18:56.111Z,0.21
2023-03-03T19:21:30.020Z,0.15
2023-03-03T19:24:06.065Z,0.16
2023-03-03T19:27:02.226Z,0.26
2023-03-03T19:30:11.165Z,0.33
2023-03-03T19:33:00.168Z,0.40
2023-03-03T19:35:37.734Z,0.31
2023-03-03T19:38:05.887Z,0.38
2023-03-03T19:41:00.487Z,0.55
2023-03-03T19:43:55.720Z,0.37
2023-03-03T19:46:43.707Z,0.34
2023-03-03T19:49:20.771Z,0.38
2023-03-03T19:51:48.433Z,0.37
2023-03-03T19:54:38.826Z,0.29
2023-03-03T19:57:17.238Z,0.48
2023-03-03T20:00:07.436Z,0.50
2023-03-03T20:02:39.724Z,0.48
2023-03-03T20:05:39.552Z,0.64
2023-03-03T20:08:30.498Z,0.54
2023-03-03T20:11:13.367Z,0.56
2023-03-03T20:14:02.785Z,0.41
2023-03-03T20:16:41.322Z,0.31
2023-03-03T20:19:43.348Z,0.40
2023-03-03T20:22:29.365Z,0.39
2023-03-03T20:25:14.537Z,0.33
2023-03-03T20:27:51.446Z,0.35
2023-03-03T20:30:34.431Z,0.49
2023-03-03T20:33:14.805Z,0.55
2023-03-03T20:36:01.137Z,0.27
2023-03-03T20:39:04.402Z,0.41
2023-03-03T20:41:45.393Z,0.32
2023-03-03T20:44:19.063Z,0.38
2023-03-03T20:46:55.612Z,0.50
2023-03-03T20:49:32.283Z,0.55
2023-03-03T20:52:08.400Z,0.60
2023-03-03T20:55:04.183Z,0.58
2023-03-03T20:57:51.456Z,0.50
2023-03-03T21:00:51.402Z,0.68
2023-03-03T21:03:31.579Z,0.54
2023-03-03T21:06:02.511Z,0.60
2023-03-03T21:08:49.521Z,0.57
2023-03-03T21:11:30.969Z,0.62
2023-03-03T21:14:11.602Z,0.59
2023-03-03T21:16:41.913Z,0.52
2023-03-03T21:19:23.195Z,0.61
2023-03-03T21:21:52.947Z,0.69
2023-03-03T21:24:21.015Z,0.69
2023-03-03T21:26:56.720Z,0.86
2023-03-03T21:29:35.837Z,0.88
2023-03-03T21:32:09.294Z,0.89
2023-03-03T21:34:39.867Z,0.82
2023-03-03T21:37:15.385Z,0.80
2023-03-03T21:39:44.538Z,0.78
2023-03-03T21:42:20.989Z,0.79
2023-03-03T21:44:51.340Z,0.86
2023-03-03T21:47:20.256Z,0.84
2023-03-03T21:49:50.690Z,0.90
2023-03-03T21:52:20.536Z,0.82
2023-03-03T21:54:50.849Z,0.71
2023-03-03T21:57:19.053Z,0.75
2023-03-03T21:59:47.472Z,0.65
2023-03-03T22:02:15.191Z,0.82
2023-03-03T22:04:43.306Z,0.72
2023-03-03T22:07:11.202Z,0.74
2023-03-03T22:09:39.817Z,0.74
2023-03-03T22:12:08.208Z,0.69
2023-03-03T22:14:36.238Z,0.70
2023-03-03T22:17:03.929Z,0.90
2023-03-03T22:19:34.186Z,0.76
2023-03-03T22:22:02.042Z,0.78
2023-03-03T22:24:30.637Z,1.05
2023-03-03T22:26:58.323Z,1.03
2023-03-03T22:29:26.727Z,1.03
2023-03-03T22:31:54.506Z,0.97
2023-03-03T22:34:22.774Z,0.97
2023-03-03T22:36:51.264Z,0.93
2023-03-03T22:39:20.045Z,0.97
2023-03-03T22:41:48.126Z,0.95
2023-03-03T22:44:16.104Z,0.95
2023-03-03T22:46:45.227Z,0.94
2023-03-03T22:49:13.240Z,1.04
2023-03-03T22:51:40.924Z,0.95
2023-03-03T22:54:08.830Z,0.83
2023-03-03T22:56:36.440Z,0.90
2023-03-03T22:59:04.328Z,0.86
2023-03-03T23:01:32.139Z,1.05
2023-03-03T23:04:00.048Z,0.88
2023-03-03T23:06:27.806Z,0.98
2023-03-03T23:08:55.734Z,1.03
2023-03-03T23:11:24.743Z,0.96
2023-03-03T23:13:52.966Z,1.03
2023-03-03T23:16:20.635Z,0.99
2023-03-03T23:18:49.199Z,0.99
2023-03-03T23:21:17.525Z,1.05
2023-03-03T23:23:45.440Z,1.06
2023-03-03T23:26:13.073Z,1.17
2023-03-03T23:28:40.980Z,1.24
2023-03-03T23:31:08.797Z,1.10
2023-03-03T23:33:36.673Z,1.04
2023-03-03T23:36:04.628Z,0.93
2023-03-03T23:38:32.532Z,0.96
2023-03-03T23:41:00.219Z,0.92
2023-03-03T23:43:28.084Z,0.86
2023-03-03T23:45:55.784Z,0.97
2023-03-03T23:48:23.722Z,1.03
2023-03-03T23:50:51.433Z,0.93
2023-03-03T23:53:19.496Z,0.90
2023-03-03T23:55:47.166Z,1.00
2023-03-03T23:58:15.103Z,0.98
